createdAt,value
2023-05-14T00:01:24.045Z,95836.22
2023-05-14T00:06:25.719Z,95832.72
2023-05-14T00:11:27.231Z,95831.63
2023-05-14T00:16:29.070Z,95826.53
2023-05-14T00:21:31.772Z,95818.72
2023-05-14T00:26:33.385Z,95824.22
2023-05-14T00:31:35.227Z,95815.97
2023-05-14T00:36:37.894Z,95815.97
2023-05-14T00:41:39.581Z,95812.03
2023-05-14T00:46:41.387Z,95808.09
2023-05-14T00:51:46.719Z,95800.22
2023-05-14T00:56:48.687Z,95806.50
2023-05-14T01:01:51.068Z,95801.00
2023-05-14T01:07:39.110Z,95806.91
2023-05-14T01:13:02.859Z,95809.25
2023-05-14T01:18:09.625Z,95795.50
2023-05-14T01:23:12.120Z,95794.75
2023-05-14T01:28:26.950Z,95795.50
2023-05-14T01:33:29.734Z,95792.00
2023-05-14T01:38:34.022Z,95792.78
2023-05-14T01:43:37.618Z,95787.28
2023-05-14T01:48:41.407Z,95783.75
2023-05-14T01:53:43.351Z,95782.63
2023-05-14T01:58:44.900Z,95787.72
2023-05-14T02:03:46.478Z,95783.38
2023-05-14T02:08:47.986Z,95781.06
2023-05-14T02:13:49.624Z,95779.50
2023-05-14T02:18:51.292Z,95782.25
2023-05-14T02:23:52.898Z,95777.94
2023-05-14T02:28:54.453Z,95772.50
2023-05-14T02:33:55.953Z,95770.16
2023-05-14T02:38:59.818Z,95768.63
2023-05-14T02:44:01.403Z,95766.69
2023-05-14T02:49:03.224Z,95754.94
2023-05-14T02:54:04.951Z,95755.34
2023-05-14T02:59:06.506Z,95753.00
2023-05-14T03:04:08.672Z,95747.16
2023-05-14T03:09:10.332Z,95747.19
2023-05-14T03:14:11.895Z,95750.41
2023-05-14T03:19:13.574Z,95754.34
2023-05-14T03:24:15.391Z,95743.06
2023-05-14T03:29:19.065Z,95748.16
2023-05-14T03:34:20.678Z,95744.31
2023-05-14T03:39:22.242Z,95745.16
2023-05-14T03:44:23.820Z,95736.97
2023-05-14T03:49:25.597Z,95739.78
2023-05-14T03:54:27.221Z,95737.88
2023-05-14T03:59:29.870Z,95734.38
2023-05-14T04:04:31.428Z,95732.84
2023-05-14T04:09:33.013Z,95736.00
2023-05-14T04:14:34.531Z,95734.88
2023-05-14T04:19:36.092Z,95730.16
2023-05-14T04:24:37.975Z,95724.66
2023-05-14T04:29:39.558Z,95724.66
2023-05-14T04:34:41.204Z,95718.00
2023-05-14T04:39:43.535Z,95725.81
2023-05-14T04:44:45.043Z,95726.59
2023-05-14T04:49:46.576Z,95720.72
2023-05-14T04:54:48.123Z,95723.84
2023-05-14T04:59:49.628Z,95721.44
2023-05-14T05:04:51.098Z,95731.63
2023-05-14T05:09:52.661Z,95738.25
2023-05-14T05:14:54.154Z,95734.31
2023-05-14T05:19:55.636Z,95735.06
2023-05-14T05:24:58.685Z,95734.25
2023-05-14T05:30:04.033Z,95735.00
2023-05-14T05:35:06.547Z,95734.53
2023-05-14T05:40:09.126Z,95732.13
2023-05-14T05:45:10.880Z,95725.44
2023-05-14T05:50:12.424Z,95724.19
2023-05-14T05:55:13.923Z,95730.03
2023-05-14T06:00:16.831Z,95732.28
2023-05-14T06:05:19.378Z,95735.72
2023-05-14T06:10:21.049Z,95738.44
2023-05-14T06:15:23.075Z,95725.44
2023-05-14T06:20:24.830Z,95725.34
2023-05-14T06:25:26.603Z,95737.41
2023-05-14T06:30:28.190Z,95735.41
2023-05-14T06:35:29.731Z,95736.16
2023-05-14T06:40:31.948Z,95727.84
2023-05-14T06:45:33.507Z,95729.38
2023-05-14T06:50:35.041Z,95720.59
2023-05-14T06:55:36.693Z,95719.72
2023-05-14T07:00:38.202Z,95728.63
2023-05-14T07:05:41.182Z,95728.09
2023-05-14T07:10:42.716Z,95728.00
2023-05-14T07:15:44.256Z,95730.59
2023-05-14T07:20:45.805Z,95725.38
2023-05-14T07:25:47.298Z,95727.19
2023-05-14T07:30:48.862Z,95728.59
2023-05-14T07:35:51.109Z,95717.44
2023-05-14T07:40:52.730Z,95707.09
2023-05-14T07:45:54.379Z,95702.66
2023-05-14T07:50:55.921Z,95708.03
2023-05-14T07:55:57.845Z,95705.16
2023-05-14T08:01:01.286Z,95688.03
2023-05-14T08:06:03.923Z,95692.47
2023-05-14T08:11:05.661Z,95695.00
2023-05-14T08:16:07.556Z,95687.38
2023-05-14T08:21:09.066Z,95684.50
2023-05-14T08:26:10.579Z,95681.59
2023-05-14T08:31:14.482Z,95668.81
2023-05-14T08:36:16.179Z,95663.81
2023-05-14T08:41:17.903Z,95652.84
2023-05-14T08:46:23.265Z,95651.38
2023-05-14T08:51:26.533Z,95651.97
2023-05-14T08:56:29.389Z,95643.53
2023-05-14T09:01:31.094Z,95648.81
2023-05-14T09:06:33.225Z,95647.31
2023-05-14T09:11:34.777Z,95637.94
2023-05-14T09:16:37.485Z,95636.88
2023-05-14T09:21:40.190Z,95637.03
2023-05-14T09:26:42.473Z,95638.72
2023-05-14T09:31:44.256Z,95641.97
2023-05-14T09:36:45.866Z,95629.19
2023-05-14T09:41:47.347Z,95632.84
2023-05-14T09:46:49.453Z,95626.38
2023-05-14T09:51:51.434Z,95627.34
2023-05-14T09:56:54.542Z,95618.09
2023-05-14T10:01:58.027Z,95620.22
2023-05-14T10:07:00.870Z,95611.63
2023-05-14T10:12:02.543Z,95609.75
2023-05-14T10:17:06.374Z,95608.34
2023-05-14T10:22:11.386Z,95602.91
2023-05-14T10:27:13.051Z,95597.72
2023-05-14T10:32:14.842Z,95591.25
2023-05-14T10:37:25.370Z,95591.38
2023-05-14T10:42:36.029Z,95584.56
2023-05-14T10:47:46.473Z,95588.84
2023-05-14T10:52:49.072Z,95581.16
2023-05-14T10:57:52.214Z,95574.31
2023-05-14T11:02:57.575Z,95564.84
2023-05-14T11:08:01.648Z,95566.97
2023-05-14T11:13:03.309Z,95563.22
2023-05-14T11:18:05.204Z,95562.53
2023-05-14T11:23:06.736Z,95560.88
2023-05-14T11:28:08.355Z,95555.06
2023-05-14T11:33:10.454Z,95553.97
2023-05-14T11:38:21.345Z,95544.63
2023-05-14T11:43:29.490Z,95541.09
2023-05-14T11:48:31.970Z,95530.50
2023-05-14T11:53:33.541Z,95528.63
2023-05-14T11:58:35.119Z,95531.34
2023-05-14T12:03:36.850Z,95518.84
2023-05-14T12:08:38.511Z,95513.00
2023-05-14T12:13:40.642Z,95501.13
2023-05-14T12:18:42.809Z,95499.75
2023-05-14T12:23:44.390Z,95496.03
2023-05-14T12:28:47.618Z,95483.25
2023-05-14T12:33:49.080Z,95493.13
2023-05-14T12:38:51.310Z,95485.09
2023-05-14T12:43:52.807Z,95466.75
2023-05-14T12:48:54.860Z,95466.75
2023-05-14T12:53:56.335Z,95463.53
2023-05-14T12:58:57.944Z,95466.31
2023-05-14T13:03:59.585Z,95460.00
2023-05-14T13:09:02.369Z,95460.13
2023-05-14T13:14:04.001Z,95457.94
2023-05-14T13:19:05.629Z,95452.75
2023-05-14T13:24:07.500Z,95455.06
2023-05-14T13:29:09.332Z,95454.28
2023-05-14T13:34:10.827Z,95447.34
2023-05-14T13:39:14.141Z,95447.47
2023-05-14T13:44:15.926Z,95445.31
2023-05-14T13:49:17.508Z,95441.13
2023-05-14T13:54:19.020Z,95429.88
2023-05-14T13:59:20.995Z,95427.59
2023-05-14T14:04:22.635Z,95429.13
2023-05-14T14:09:24.590Z,95426.97
2023-05-14T14:14:26.097Z,95433.13
2023-05-14T14:19:27.669Z,95425.88
2023-05-14T14:24:29.231Z,95425.59
2023-05-14T14:29:31.156Z,95425.28
2023-05-14T14:34:32.696Z,95432.81
2023-05-14T14:39:34.239Z,95463.31
2023-05-14T14:44:35.709Z,95458.66
2023-05-14T14:49:37.187Z,95460.47
2023-05-14T14:54:38.730Z,95463.81
2023-05-14T14:59:40.381Z,95459.31
2023-05-14T15:04:41.971Z,95462.25
2023-05-14T15:09:43.451Z,95474.84
2023-05-14T15:14:45.016Z,95466.09
2023-05-14T15:19:46.612Z,95464.25
2023-05-14T15:24:48.089Z,95464.03
2023-05-14T15:29:49.604Z,95476.50
2023-05-14T15:34:51.103Z,95465.03
2023-05-14T15:39:52.643Z,95458.03
2023-05-14T15:44:55.005Z,95465.31
2023-05-14T15:49:56.615Z,95464.69
2023-05-14T15:54:59.496Z,95465.19
2023-05-14T16:00:01.128Z,95471.84
2023-05-14T16:05:02.940Z,95472.56
2023-05-14T16:10:05.925Z,95474.59
2023-05-14T16:15:08.148Z,95474.81
2023-05-14T16:20:10.335Z,95477.81
2023-05-14T16:25:12.139Z,95478.03
2023-05-14T16:30:13.704Z,95465.56
2023-05-14T16:35:16.773Z,95460.94
2023-05-14T16:40:19.629Z,95457.06
2023-05-14T16:45:21.152Z,95456.06
2023-05-14T16:50:22.666Z,95455.03
2023-05-14T16:55:24.742Z,95453.41
2023-05-14T17:00:26.447Z,95452.97
2023-05-14T17:05:28.123Z,95448.84
2023-05-14T17:10:30.253Z,95451.50
2023-05-14T17:15:31.824Z,95457.03
2023-05-14T17:20:33.459Z,95451.28
2023-05-14T17:25:34.996Z,95452.09
2023-05-14T17:30:36.497Z,95455.34
2023-05-14T17:35:38.082Z,95450.44
2023-05-14T17:40:40.819Z,95456.59
2023-05-14T17:45:53.062Z,95454.81
2023-05-14T17:50:55.651Z,95456.06
2023-05-14T17:55:57.300Z,95441.78
2023-05-14T18:00:58.821Z,95436.94
2023-05-14T18:06:00.436Z,95437.41
2023-05-14T18:11:01.984Z,95436.28
2023-05-14T18:16:03.872Z,95440.28
2023-05-14T18:21:05.520Z,95441.06
2023-05-14T18:26:07.208Z,95425.59
2023-05-14T18:31:08.945Z,95422.72
2023-05-14T18:36:10.694Z,95428.56
2023-05-14T18:41:12.215Z,95423.81
2023-05-14T18:46:14.030Z,95421.81
2023-05-14T18:51:15.712Z,95435.53
2023-05-14T18:56:17.287Z,95422.81
2023-05-14T19:01:18.840Z,95422.38
2023-05-14T19:06:20.575Z,95429.38
2023-05-14T19:11:22.591Z,95425.78
2023-05-14T19:16:24.376Z,95436.31
2023-05-14T19:21:25.880Z,95433.84
2023-05-14T19:26:28.085Z,95436.09
2023-05-14T19:31:29.643Z,95444.19
2023-05-14T19:36:32.195Z,95444.78
2023-05-14T19:41:33.707Z,95442.59
2023-05-14T19:46:35.301Z,95439.66
2023-05-14T19:51:36.857Z,95446.91
2023-05-14T19:56:38.552Z,95442.69
2023-05-14T20:01:40.185Z,95443.28
2023-05-14T20:06:45.354Z,95442.22
2023-05-14T20:11:46.945Z,95441.19
2023-05-14T20:16:49.027Z,95437.75
2023-05-14T20:21:50.641Z,95432.34
2023-05-14T20:26:52.309Z,95446.09
2023-05-14T20:31:53.859Z,95440.59
2023-05-14T20:36:56.003Z,95434.31
2023-05-14T20:41:57.525Z,95430.78
2023-05-14T20:46:59.232Z,95430.44
2023-05-14T20:52:00.786Z,95438.69
2023-05-14T20:57:02.334Z,95429.22
2023-05-14T21:02:04.385Z,95426.50
2023-05-14T21:07:06.208Z,95419.44
2023-05-14T21:12:08.241Z,95430.00
2023-05-14T21:17:09.763Z,95425.38
2023-05-14T21:22:12.706Z,95425.88
2023-05-14T21:27:14.342Z,95430.66
2023-05-14T21:32:16.005Z,95423.28
2023-05-14T21:37:17.549Z,95429.63
2023-05-14T21:42:20.963Z,95426.63
2023-05-14T21:47:22.548Z,95424.38
2023-05-14T21:52:24.089Z,95421.69
2023-05-14T21:57:28.136Z,95417.81
2023-05-14T22:02:30.215Z,95416.34
2023-05-14T22:07:32.865Z,95417.19
2023-05-14T22:12:34.465Z,95412.94
2023-05-14T22:17:36.341Z,95407.50
2023-05-14T22:22:38.540Z,95403.28
2023-05-14T22:27:40.042Z,95398.22
2023-05-14T22:32:41.624Z,95397.94
2023-05-14T22:37:43.266Z,95394.91
2023-05-14T22:42:45.219Z,95398.16
2023-05-14T22:47:46.836Z,95392.38
2023-05-14T22:52:48.380Z,95388.16
2023-05-14T22:57:50.212Z,95380.84
2023-05-14T23:02:51.873Z,95378.56
2023-05-14T23:07:53.590Z,95373.72
2023-05-14T23:12:55.208Z,95367.59
2023-05-14T23:17:57.025Z,95357.50
2023-05-14T23:22:58.745Z,95353.28
2023-05-14T23:28:00.396Z,95343.16
2023-05-14T23:33:01.954Z,95347.09
2023-05-14T23:38:07.408Z,95333.41
2023-05-14T23:43:08.921Z,95331.88
2023-05-14T23:48:10.534Z,95328.78
2023-05-14T23:53:12.050Z,95319.78
2023-05-14T23:58:13.601Z,95313.09
